createdAt,value
2023-04-28T06:21:12.181Z,8.22
2023-04-28T06:31:12.269Z,8.52
2023-04-28T06:41:11.996Z,8.99
2023-04-28T06:51:12.404Z,8.97
2023-04-28T07:01:12.247Z,9.32
2023-04-28T07:11:12.241Z,9.82
2023-04-28T07:21:12.164Z,10.26
2023-04-28T07:31:12.376Z,10.29
2023-04-28T07:41:12.345Z,10.45
2023-04-28T07:51:12.157Z,9.94
2023-04-28T08:01:12.226Z,10.08
2023-04-28T08:11:12.219Z,10.57
2023-04-28T08:21:12.214Z,11.07
2023-04-28T08:31:12.305Z,11.22
2023-04-28T08:41:12.489Z,10.83
2023-04-28T08:51:12.451Z,11.05
2023-04-28T09:01:12.248Z,11.30
2023-04-28T09:11:12.546Z,11.34
2023-04-28T09:21:12.452Z,11.55
2023-04-28T09:31:12.475Z,11.60
2023-04-28T09:41:12.497Z,11.87
2023-04-28T09:51:13.250Z,11.92
2023-04-28T10:01:12.567Z,12.10
2023-04-28T10:11:12.419Z,11.90
2023-04-28T10:21:12.489Z,12.03
2023-04-28T10:31:12.600Z,12.09
2023-04-28T10:41:12.458Z,12.38
2023-04-28T10:51:12.412Z,12.43
2023-04-28T11:01:12.460Z,12.52
2023-04-28T11:11:12.377Z,12.65
2023-04-28T11:21:12.435Z,13.15
2023-04-28T11:31:12.356Z,12.87
2023-04-28T11:41:12.534Z,12.71
2023-04-28T11:51:12.546Z,12.88
2023-04-28T12:01:12.550Z,12.85
2023-04-28T12:11:12.532Z,12.69
2023-04-28T12:21:12.401Z,12.67
2023-04-28T12:31:12.536Z,12.70
2023-04-28T12:41:12.756Z,13.08
2023-04-28T12:51:12.500Z,13.26
2023-04-28T13:01:12.751Z,13.57
2023-04-28T13:11:21.815Z,13.54
2023-04-28T13:21:12.639Z,13.45
2023-04-28T13:31:12.670Z,12.93
2023-04-28T13:41:12.677Z,12.60
2023-04-28T13:51:12.739Z,12.60
2023-04-28T14:01:12.756Z,12.62
2023-04-28T14:11:12.754Z,12.51
2023-04-28T14:21:12.822Z,12.56
2023-04-28T14:31:12.912Z,12.43
2023-04-28T14:41:12.856Z,12.55
2023-04-28T14:51:12.682Z,12.38
2023-04-28T15:01:12.715Z,12.41
2023-04-28T15:11:12.719Z,12.40
2023-04-28T15:21:12.836Z,12.39
2023-04-28T15:31:12.913Z,12.35
2023-04-28T15:41:12.947Z,12.54
2023-04-28T15:51:12.857Z,12.63
2023-04-28T16:01:12.859Z,12.85
2023-04-28T16:11:13.133Z,12.86
2023-04-28T16:21:12.897Z,12.79
2023-04-28T16:31:12.900Z,12.78
2023-04-28T16:41:12.863Z,12.64
2023-04-28T16:51:13.013Z,12.49
2023-04-28T17:01:12.949Z,11.92
2023-04-28T17:11:12.916Z,11.35
2023-04-28T17:21:12.961Z,11.24
2023-04-28T17:31:12.991Z,11.06
2023-04-28T17:41:12.968Z,11.03
2023-04-28T17:51:13.033Z,10.95
2023-04-28T18:01:13.025Z,10.94
2023-04-28T18:11:12.968Z,10.94
2023-04-28T18:21:13.094Z,10.97
2023-04-28T18:31:13.120Z,10.99
2023-04-28T18:41:13.100Z,10.98
2023-04-28T18:51:13.207Z,10.97
2023-04-28T19:01:13.397Z,10.92
2023-04-28T19:11:13.453Z,10.97
2023-04-28T19:21:13.682Z,10.85
